sensor_id;sensor_type;location;lat;lon;timestamp;pressure;altitude;pressure_sealevel;temperature;humidity
73628;BME280;61923;51.846;5.856;2023-02-28T00:00:34;103034.84;;;13.24;61.04
73628;BME280;61923;51.846;5.856;2023-02-28T00:03:01;103041.31;;;13.17;60.97
73628;BME280;61923;51.846;5.856;2023-02-28T00:05:27;103041.03;;;13.22;61.19
73628;BME280;61923;51.846;5.856;2023-02-28T00:07:54;103037.59;;;13.21;61.15
73628;BME280;61923;51.846;5.856;2023-02-28T00:10:25;103044.53;;;13.22;61.29
73628;BME280;61923;51.846;5.856;2023-02-28T00:12:52;103042.81;;;13.21;61.29
73628;BME280;61923;51.846;5.856;2023-02-28T00:15:19;103041.31;;;13.17;61.33
73628;BME280;61923;51.846;5.856;2023-02-28T00:17:45;103048.13;;;13.20;61.42
73628;BME280;61923;51.846;5.856;2023-02-28T00:20:13;103040.66;;;13.13;61.31
73628;BME280;61923;51.846;5.856;2023-02-28T00:22:40;103047.28;;;13.19;61.20
73628;BME280;61923;51.846;5.856;2023-02-28T00:25:08;103047.22;;;13.21;61.36
73628;BME280;61923;51.846;5.856;2023-02-28T00:27:35;103032.59;;;13.18;61.32
73628;BME280;61923;51.846;5.856;2023-02-28T00:30:00;103038.44;;;13.22;61.41
73628;BME280;61923;51.846;5.856;2023-02-28T00:32:26;103029.13;;;13.18;61.56
73628;BME280;61923;51.846;5.856;2023-02-28T00:34:51;103030.81;;;13.19;61.52
73628;BME280;61923;51.846;5.856;2023-02-28T00:37:17;103032.47;;;13.20;61.73
73628;BME280;61923;51.846;5.856;2023-02-28T00:39:42;103035.09;;;13.20;61.61
73628;BME280;61923;51.846;5.856;2023-02-28T00:42:08;103028.94;;;13.21;61.69
73628;BME280;61923;51.846;5.856;2023-02-28T00:44:33;103028.28;;;13.17;61.67
73628;BME280;61923;51.846;5.856;2023-02-28T00:46:59;103030.31;;;13.12;61.59
73628;BME280;61923;51.846;5.856;2023-02-28T00:49:26;103040.41;;;13.18;61.75
73628;BME280;61923;51.846;5.856;2023-02-28T00:51:52;103038.81;;;13.15;61.57
73628;BME280;61923;51.846;5.856;2023-02-28T00:54:18;103038.91;;;13.14;61.73
73628;BME280;61923;51.846;5.856;2023-02-28T00:56:43;103034.59;;;13.13;61.68
73628;BME280;61923;51.846;5.856;2023-02-28T00:59:11;103027.69;;;13.12;61.71
73628;BME280;61923;51.846;5.856;2023-02-28T01:01:36;103031.16;;;13.12;61.80
73628;BME280;61923;51.846;5.856;2023-02-28T01:04:02;103032.91;;;13.12;61.67
73628;BME280;61923;51.846;5.856;2023-02-28T01:06:28;103038.13;;;13.12;61.86
73628;BME280;61923;51.846;5.856;2023-02-28T01:08:53;103035.72;;;13.09;61.74
73628;BME280;61923;51.846;5.856;2023-02-28T01:11:18;103042.59;;;13.10;61.81
73628;BME280;61923;51.846;5.856;2023-02-28T01:13:45;103042.53;;;13.11;61.65
73628;BME280;61923;51.846;5.856;2023-02-28T01:16:11;103040.00;;;13.10;62.04
73628;BME280;61923;51.846;5.856;2023-02-28T01:18:37;103040.00;;;13.10;61.89
73628;BME280;61923;51.846;5.856;2023-02-28T01:21:07;103030.19;;;12.99;61.89
73628;BME280;61923;51.846;5.856;2023-02-28T01:23:33;103044.38;;;13.09;61.97
73628;BME280;61923;51.846;5.856;2023-02-28T01:26:10;103040.75;;;13.12;61.71
73628;BME280;61923;51.846;5.856;2023-02-28T01:28:36;103039.81;;;13.13;61.97
73628;BME280;61923;51.846;5.856;2023-02-28T01:31:02;103030.31;;;13.12;62.13
73628;BME280;61923;51.846;5.856;2023-02-28T01:33:28;103037.31;;;13.11;62.33
73628;BME280;61923;51.846;5.856;2023-02-28T01:36:04;103024.69;;;13.04;62.28
73628;BME280;61923;51.846;5.856;2023-02-28T01:38:30;103035.13;;;13.04;62.15
73628;BME280;61923;51.846;5.856;2023-02-28T01:40:55;103025.81;;;13.00;62.14
73628;BME280;61923;51.846;5.856;2023-02-28T01:43:30;103039.16;;;13.09;62.22
73628;BME280;61923;51.846;5.856;2023-02-28T01:45:57;103036.56;;;13.09;62.33
73628;BME280;61923;51.846;5.856;2023-02-28T01:48:26;103038.34;;;13.09;62.29
73628;BME280;61923;51.846;5.856;2023-02-28T01:50:54;103030.66;;;13.06;62.32
73628;BME280;61923;51.846;5.856;2023-02-28T01:53:29;103032.09;;;13.11;62.09
73628;BME280;61923;51.846;5.856;2023-02-28T01:55:57;103024.34;;;13.10;62.45
73628;BME280;61923;51.846;5.856;2023-02-28T01:58:23;103028.66;;;13.11;62.41
73628;BME280;61923;51.846;5.856;2023-02-28T02:00:49;103020.00;;;13.10;62.44
73628;BME280;61923;51.846;5.856;2023-02-28T02:03:16;103021.72;;;13.10;62.50
73628;BME280;61923;51.846;5.856;2023-02-28T02:05:46;103023.69;;;13.06;62.32
73628;BME280;61923;51.846;5.856;2023-02-28T02:08:24;103015.00;;;13.06;62.50
73628;BME280;61923;51.846;5.856;2023-02-28T02:11:01;103025.19;;;13.10;62.67
73628;BME280;61923;51.846;5.856;2023-02-28T02:33:06;103024.53;;;13.07;62.89
73628;BME280;61923;51.846;5.856;2023-02-28T02:35:56;103026.19;;;13.08;62.84
73628;BME280;61923;51.846;5.856;2023-02-28T02:38:36;103019.69;;;13.01;62.89
73628;BME280;61923;51.846;5.856;2023-02-28T02:41:18;103005.06;;;12.98;63.05
73628;BME280;61923;51.846;5.856;2023-02-28T02:43:52;103001.88;;;12.93;63.06
73628;BME280;61923;51.846;5.856;2023-02-28T02:46:21;103026.31;;;13.06;62.81
73628;BME280;61923;51.846;5.856;2023-02-28T02:48:48;103018.38;;;13.08;62.88
73628;BME280;61923;51.846;5.856;2023-02-28T02:51:17;103011.09;;;12.99;63.06
73628;BME280;61923;51.846;5.856;2023-02-28T02:53:53;103021.84;;;13.08;63.18
73628;BME280;61923;51.846;5.856;2023-02-28T02:56:23;103021.94;;;13.07;63.07
73628;BME280;61923;51.846;5.856;2023-02-28T02:58:52;103020.97;;;13.08;63.10
73628;BME280;61923;51.846;5.856;2023-02-28T03:01:22;103028.25;;;13.03;63.04
73628;BME280;61923;51.846;5.856;2023-02-28T03:03:58;103028.91;;;13.06;63.23
73628;BME280;61923;51.846;5.856;2023-02-28T03:06:25;103021.94;;;13.07;63.14
73628;BME280;61923;51.846;5.856;2023-02-28T03:08:50;103022.09;;;13.04;63.09
73628;BME280;61923;51.846;5.856;2023-02-28T03:11:16;103030.66;;;13.06;63.16
73628;BME280;61923;51.846;5.856;2023-02-28T03:24:11;103028.91;;;13.06;63.39
73628;BME280;61923;51.846;5.856;2023-02-28T03:26:42;103028.81;;;13.08;63.43
73628;BME280;61923;51.846;5.856;2023-02-28T03:29:22;103028.06;;;13.06;63.52
73628;BME280;61923;51.846;5.856;2023-02-28T03:31:58;103022.84;;;13.06;63.30
73628;BME280;61923;51.846;5.856;2023-02-28T03:36:53;103026.41;;;13.05;63.44
73628;BME280;61923;51.846;5.856;2023-02-28T03:39:27;103030.78;;;13.04;63.55
73628;BME280;61923;51.846;5.856;2023-02-28T03:42:05;103027.97;;;13.07;63.48
73628;BME280;61923;51.846;5.856;2023-02-28T03:44:44;102995.16;;;12.89;63.45
73628;BME280;61923;51.846;5.856;2023-02-28T03:47:16;103018.56;;;13.05;63.75
73628;BME280;61923;51.846;5.856;2023-02-28T03:50:01;103022.69;;;13.09;64.08
73628;BME280;61923;51.846;5.856;2023-02-28T03:52:33;102995.81;;;12.92;64.08
73628;BME280;61923;51.846;5.856;2023-02-28T03:55:03;103030.72;;;13.20;63.73
73628;BME280;61923;51.846;5.856;2023-02-28T04:00:32;103025.00;;;13.13;64.26
73628;BME280;61923;51.846;5.856;2023-02-28T04:02:59;103003.84;;;13.04;64.34
73628;BME280;61923;51.846;5.856;2023-02-28T04:05:25;103025.09;;;13.12;64.23
73628;BME280;61923;51.846;5.856;2023-02-28T04:07:51;103013.75;;;13.13;64.14
73628;BME280;61923;51.846;5.856;2023-02-28T04:10:18;103014.03;;;13.08;64.28
73628;BME280;61923;51.846;5.856;2023-02-28T04:12:43;103013.75;;;13.13;64.25
73628;BME280;61923;51.846;5.856;2023-02-28T04:15:09;103007.84;;;13.09;64.28
73628;BME280;61923;51.846;5.856;2023-02-28T04:17:35;103016.44;;;13.11;64.20
73628;BME280;61923;51.846;5.856;2023-02-28T04:20:01;103012.91;;;13.12;64.25
73628;BME280;61923;51.846;5.856;2023-02-28T04:22:26;103015.69;;;13.09;64.08
73628;BME280;61923;51.846;5.856;2023-02-28T04:24:52;103007.03;;;13.09;64.33
73628;BME280;61923;51.846;5.856;2023-02-28T04:27:20;103011.41;;;13.08;64.41
73628;BME280;61923;51.846;5.856;2023-02-28T04:29:46;103006.56;;;13.02;64.27
73628;BME280;61923;51.846;5.856;2023-02-28T04:32:12;103012.16;;;13.10;64.29
73628;BME280;61923;51.846;5.856;2023-02-28T04:34:37;103012.03;;;13.12;64.36
73628;BME280;61923;51.846;5.856;2023-02-28T04:37:03;103017.25;;;13.12;64.48
73628;BME280;61923;51.846;5.856;2023-02-28T04:39:28;103017.38;;;13.10;64.39
73628;BME280;61923;51.846;5.856;2023-02-28T04:41:55;103013.44;;;13.03;64.55
73628;BME280;61923;51.846;5.856;2023-02-28T04:44:21;103017.38;;;13.10;64.57
73628;BME280;61923;51.846;5.856;2023-02-28T04:46:48;102997.97;;;13.00;64.37
73628;BME280;61923;51.846;5.856;2023-02-28T04:49:14;103011.28;;;13.10;64.53
73628;BME280;61923;51.846;5.856;2023-02-28T04:51:40;103017.47;;;13.09;64.39
73628;BME280;61923;51.846;5.856;2023-02-28T04:54:06;103017.47;;;13.09;64.44
73628;BME280;61923;51.846;5.856;2023-02-28T04:56:31;103027.81;;;13.10;64.61
73628;BME280;61923;51.846;5.856;2023-02-28T04:58:56;103029.09;;;13.03;64.49
73628;BME280;61923;51.846;5.856;2023-02-28T05:01:25;103031.25;;;13.11;64.45
73628;BME280;61923;51.846;5.856;2023-02-28T05:03:52;103033.94;;;13.09;64.87
73628;BME280;61923;51.846;5.856;2023-02-28T05:06:18;103016.63;;;13.08;64.58
73628;BME280;61923;51.846;5.856;2023-02-28T05:08:45;103029.03;;;13.19;64.81
73628;BME280;61923;51.846;5.856;2023-02-28T05:13:44;103028.38;;;13.60;63.96
73628;BME280;61923;51.846;5.856;2023-02-28T05:16:09;103035.25;;;13.61;62.47
73628;BME280;61923;51.846;5.856;2023-02-28T05:18:35;103028.84;;;13.52;61.24
73628;BME280;61923;51.846;5.856;2023-02-28T05:21:01;103035.25;;;13.61;60.82
73628;BME280;61923;51.846;5.856;2023-02-28T05:23:27;103033.22;;;13.66;60.28
73628;BME280;61923;51.846;5.856;2023-02-28T05:25:53;103027.44;;;13.61;60.06
73628;BME280;61923;51.846;5.856;2023-02-28T05:28:19;103030.22;;;13.44;61.88
73628;BME280;61923;51.846;5.856;2023-02-28T05:30:44;103027.22;;;13.50;59.91
73628;BME280;61923;51.846;5.856;2023-02-28T05:33:11;103027.06;;;13.67;58.24
73628;BME280;61923;51.846;5.856;2023-02-28T05:35:41;103023.53;;;13.54;59.86
73628;BME280;61923;51.846;5.856;2023-02-28T05:38:08;103025.72;;;13.46;60.07
73628;BME280;61923;51.846;5.856;2023-02-28T05:40:33;103027.06;;;13.39;61.43
73628;BME280;61923;51.846;5.856;2023-02-28T05:42:58;103031.69;;;13.33;61.40
73628;BME280;61923;51.846;5.856;2023-02-28T05:45:24;103024.06;;;13.30;61.33
73628;BME280;61923;51.846;5.856;2023-02-28T05:47:53;103027.50;;;13.31;61.56
73628;BME280;61923;51.846;5.856;2023-02-28T05:50:19;103046.78;;;13.28;61.67
73628;BME280;61923;51.846;5.856;2023-02-28T05:52:48;103043.28;;;13.28;61.89
73628;BME280;61923;51.846;5.856;2023-02-28T05:55:13;103049.53;;;13.25;61.88
73628;BME280;61923;51.846;5.856;2023-02-28T05:57:39;103043.41;;;13.26;62.29
73628;BME280;61923;51.846;5.856;2023-02-28T06:00:05;103046.84;;;13.27;62.24
73628;BME280;61923;51.846;5.856;2023-02-28T06:02:30;103052.91;;;13.27;62.33
73628;BME280;61923;51.846;5.856;2023-02-28T06:04:56;103042.47;;;13.27;62.47
73628;BME280;61923;51.846;5.856;2023-02-28T06:07:21;103036.41;;;13.27;62.51
73628;BME280;61923;51.846;5.856;2023-02-28T06:09:47;103021.41;;;13.16;62.78
73628;BME280;61923;51.846;5.856;2023-02-28T06:12:13;103058.03;;;13.29;62.76
73628;BME280;61923;51.846;5.856;2023-02-28T06:14:38;103060.66;;;13.29;62.84
73628;BME280;61923;51.846;5.856;2023-02-28T06:17:04;103056.53;;;13.25;62.78
73628;BME280;61923;51.846;5.856;2023-02-28T06:19:30;103048.03;;;13.21;63.03
73628;BME280;61923;51.846;5.856;2023-02-28T06:21:56;103047.69;;;13.27;62.90
73628;BME280;61923;51.846;5.856;2023-02-28T06:24:23;103046.84;;;13.27;63.16
73628;BME280;61923;51.846;5.856;2023-02-28T06:26:49;103037.38;;;13.10;63.18
73628;BME280;61923;51.846;5.856;2023-02-28T06:29:15;103061.56;;;13.28;62.94
73628;BME280;61923;51.846;5.856;2023-02-28T06:31:46;103079.00;;;13.27;63.06
73628;BME280;61923;51.846;5.856;2023-02-28T06:34:12;103073.69;;;13.29;63.02
73628;BME280;61923;51.846;5.856;2023-02-28T06:36:39;103068.63;;;13.26;63.32
73628;BME280;61923;51.846;5.856;2023-02-28T06:39:06;103067.81;;;13.25;63.17
73628;BME280;61923;51.846;5.856;2023-02-28T06:41:32;103063.69;;;13.21;63.16
73628;BME280;61923;51.846;5.856;2023-02-28T06:44:04;103073.03;;;13.25;62.96
73628;BME280;61923;51.846;5.856;2023-02-28T06:46:31;103071.38;;;13.24;63.10
73628;BME280;61923;51.846;5.856;2023-02-28T06:48:56;103079.19;;;13.24;63.01
73628;BME280;61923;51.846;5.856;2023-02-28T06:51:21;103064.72;;;13.19;63.20
73628;BME280;61923;51.846;5.856;2023-02-28T06:53:47;103073.97;;;13.24;63.04
73628;BME280;61923;51.846;5.856;2023-02-28T06:56:14;103074.81;;;13.25;62.79
73628;BME280;61923;51.846;5.856;2023-02-28T06:58:41;103078.31;;;13.24;62.62
73628;BME280;61923;51.846;5.856;2023-02-28T07:01:07;103072.34;;;13.22;62.86
73628;BME280;61923;51.846;5.856;2023-02-28T07:03:35;103074.81;;;13.25;62.29
73628;BME280;61923;51.846;5.856;2023-02-28T07:06:01;103084.41;;;13.24;62.14
73628;BME280;61923;51.846;5.856;2023-02-28T07:08:28;103081.03;;;13.22;62.24
73628;BME280;61923;51.846;5.856;2023-02-28T07:10:54;103087.19;;;13.21;61.87
73628;BME280;61923;51.846;5.856;2023-02-28T07:13:20;103090.47;;;13.25;61.70
73628;BME280;61923;51.846;5.856;2023-02-28T07:15:58;103073.66;;;13.14;61.57
73628;BME280;61923;51.846;5.856;2023-02-28T07:18:24;103087.78;;;13.26;61.44
73628;BME280;61923;51.846;5.856;2023-02-28T07:20:51;103065.09;;;13.12;61.09
73628;BME280;61923;51.846;5.856;2023-02-28T07:23:16;103091.91;;;13.30;61.08
73628;BME280;61923;51.846;5.856;2023-02-28T07:25:42;103097.88;;;13.32;61.10
73628;BME280;61923;51.846;5.856;2023-02-28T07:28:09;103097.59;;;13.37;60.71
73628;BME280;61923;51.846;5.856;2023-02-28T07:30:44;103095.69;;;13.69;59.01
73628;BME280;61923;51.846;5.856;2023-02-28T07:33:11;103097.50;;;14.12;58.39
73628;BME280;61923;51.846;5.856;2023-02-28T07:35:37;103085.53;;;14.49;57.90
73628;BME280;61923;51.846;5.856;2023-02-28T07:38:03;103094.91;;;14.81;57.41
73628;BME280;61923;51.846;5.856;2023-02-28T07:40:29;103099.69;;;15.01;57.15
73628;BME280;61923;51.846;5.856;2023-02-28T07:42:54;103085.78;;;15.13;57.04
73628;BME280;61923;51.846;5.856;2023-02-28T07:45:20;103094.22;;;15.44;56.47
73628;BME280;61923;51.846;5.856;2023-02-28T07:47:45;103101.34;;;15.55;56.38
73628;BME280;61923;51.846;5.856;2023-02-28T07:50:13;103099.25;;;15.60;56.09
73628;BME280;61923;51.846;5.856;2023-02-28T07:52:39;103093.19;;;15.60;56.40
73628;BME280;61923;51.846;5.856;2023-02-28T07:55:06;103097.16;;;15.65;56.48
73628;BME280;61923;51.846;5.856;2023-02-28T07:57:32;103087.63;;;15.64;56.58
73628;BME280;61923;51.846;5.856;2023-02-28T07:59:57;103087.97;;;15.72;56.51
73628;BME280;61923;51.846;5.856;2023-02-28T08:02:23;103099.59;;;15.81;56.55
73628;BME280;61923;51.846;5.856;2023-02-28T08:04:48;103106.94;;;15.89;56.55
73628;BME280;61923;51.846;5.856;2023-02-28T08:07:15;103114.16;;;15.98;56.55
73628;BME280;61923;51.846;5.856;2023-02-28T08:09:41;103107.84;;;16.01;56.55
73628;BME280;61923;51.846;5.856;2023-02-28T08:12:07;103106.38;;;16.09;56.33
73628;BME280;61923;51.846;5.856;2023-02-28T08:14:33;103112.88;;;16.17;56.56
73628;BME280;61923;51.846;5.856;2023-02-28T08:16:58;103113.38;;;16.22;56.40
73628;BME280;61923;51.846;5.856;2023-02-28T08:19:23;103112.00;;;16.29;55.98
73628;BME280;61923;51.846;5.856;2023-02-28T08:21:49;103106.31;;;16.35;55.91
73628;BME280;61923;51.846;5.856;2023-02-28T08:24:14;103096.78;;;16.34;56.01
73628;BME280;61923;51.846;5.856;2023-02-28T08:26:39;103104.41;;;16.50;55.85
73628;BME280;61923;51.846;5.856;2023-02-28T08:29:05;103098.00;;;16.41;56.14
73628;BME280;61923;51.846;5.856;2023-02-28T08:31:30;103108.94;;;16.35;56.57
73628;BME280;61923;51.846;5.856;2023-02-28T08:33:55;103105.72;;;16.19;57.41
73628;BME280;61923;51.846;5.856;2023-02-28T08:36:24;103108.47;;;15.91;58.11
73628;BME280;61923;51.846;5.856;2023-02-28T08:38:49;103105.47;;;15.98;57.70
73628;BME280;61923;51.846;5.856;2023-02-28T08:41:15;103110.28;;;16.04;57.61
73628;BME280;61923;51.846;5.856;2023-02-28T08:43:40;103111.81;;;16.19;56.92
73628;BME280;61923;51.846;5.856;2023-02-28T08:46:07;103105.31;;;16.49;56.28
73628;BME280;61923;51.846;5.856;2023-02-28T08:48:34;103104.78;;;16.57;56.25
73628;BME280;61923;51.846;5.856;2023-02-28T08:51:09;103109.38;;;16.66;55.76
73628;BME280;61923;51.846;5.856;2023-02-28T08:53:39;103102.84;;;16.71;55.53
73628;BME280;61923;51.846;5.856;2023-02-28T08:56:07;103092.22;;;16.73;55.29
73628;BME280;61923;51.846;5.856;2023-02-28T08:58:34;103104.88;;;16.79;55.31
73628;BME280;61923;51.846;5.856;2023-02-28T09:01:00;103102.81;;;16.84;54.72
73628;BME280;61923;51.846;5.856;2023-02-28T09:03:26;103109.00;;;16.83;54.98
73628;BME280;61923;51.846;5.856;2023-02-28T09:05:57;103100.28;;;16.83;55.36
73628;BME280;61923;51.846;5.856;2023-02-28T09:08:25;103094.84;;;16.73;55.38
73628;BME280;61923;51.846;5.856;2023-02-28T09:10:51;103105.84;;;16.78;55.58
73628;BME280;61923;51.846;5.856;2023-02-28T09:13:18;103101.78;;;16.74;55.23
73628;BME280;61923;51.846;5.856;2023-02-28T09:15:44;103108.38;;;16.80;55.47
73628;BME280;61923;51.846;5.856;2023-02-28T09:18:09;103107.75;;;16.76;55.25
73628;BME280;61923;51.846;5.856;2023-02-28T09:20:38;103110.00;;;16.69;55.44
73628;BME280;61923;51.846;5.856;2023-02-28T09:23:03;103109.75;;;16.72;55.24
73628;BME280;61923;51.846;5.856;2023-02-28T09:25:29;103099.09;;;16.63;55.47
73628;BME280;61923;51.846;5.856;2023-02-28T09:27:54;103109.56;;;16.63;55.37
73628;BME280;61923;51.846;5.856;2023-02-28T09:30:19;103108.84;;;16.61;56.05
73628;BME280;61923;51.846;5.856;2023-02-28T09:32:45;103116.34;;;16.54;56.06
73628;BME280;61923;51.846;5.856;2023-02-28T09:35:17;103104.41;;;16.50;56.16
73628;BME280;61923;51.846;5.856;2023-02-28T09:37:43;103098.53;;;16.46;56.16
73628;BME280;61923;51.846;5.856;2023-02-28T09:40:09;103111.84;;;16.43;56.26
73628;BME280;61923;51.846;5.856;2023-02-28T09:42:34;103097.28;;;16.39;56.60
73628;BME280;61923;51.846;5.856;2023-02-28T09:45:00;103098.97;;;16.40;56.84
73628;BME280;61923;51.846;5.856;2023-02-28T09:47:38;103099.69;;;16.42;54.66
73628;BME280;61923;51.846;5.856;2023-02-28T09:52:47;103100.88;;;16.38;53.79
73628;BME280;61923;51.846;5.856;2023-02-28T09:57:53;103104.06;;;16.18;52.99
73628;BME280;61923;51.846;5.856;2023-02-28T10:03:08;103098.34;;;15.87;53.61
73628;BME280;61923;51.846;5.856;2023-02-28T10:05:50;103108.16;;;15.70;54.31
73628;BME280;61923;51.846;5.856;2023-02-28T10:08:26;103108.50;;;15.66;55.02
73628;BME280;61923;51.846;5.856;2023-02-28T10:11:06;103100.50;;;15.54;53.92
73628;BME280;61923;51.846;5.856;2023-02-28T10:13:35;103098.22;;;15.50;53.63
73628;BME280;61923;51.846;5.856;2023-02-28T10:16:06;103084.38;;;15.35;53.67
73628;BME280;61923;51.846;5.856;2023-02-28T10:19:38;103085.00;;;15.26;54.27
73628;BME280;61923;51.846;5.856;2023-02-28T10:22:00;103090.84;;;15.29;54.25
73628;BME280;61923;51.846;5.856;2023-02-28T10:24:37;103093.78;;;15.25;54.58
73628;BME280;61923;51.846;5.856;2023-02-28T10:27:20;103099.31;;;15.20;54.37
73628;BME280;61923;51.846;5.856;2023-02-28T10:29:56;103067.53;;;14.99;54.86
73628;BME280;61923;51.846;5.856;2023-02-28T10:32:27;103099.72;;;15.14;54.64
73628;BME280;61923;51.846;5.856;2023-02-28T10:35:15;103091.34;;;15.09;54.81
73628;BME280;61923;51.846;5.856;2023-02-28T10:37:44;103090.06;;;15.02;55.09
73628;BME280;61923;51.846;5.856;2023-02-28T10:48:39;103087.63;;;14.86;55.02
73628;BME280;61923;51.846;5.856;2023-02-28T10:51:08;103078.78;;;14.74;55.22
73628;BME280;61923;51.846;5.856;2023-02-28T10:58:56;103070.22;;;14.72;55.08
73628;BME280;61923;51.846;5.856;2023-02-28T11:03:50;103073.66;;;14.72;55.10
73628;BME280;61923;51.846;5.856;2023-02-28T11:06:19;103070.22;;;14.72;55.08
73628;BME280;61923;51.846;5.856;2023-02-28T11:08:52;103066.94;;;14.68;55.17
73628;BME280;61923;51.846;5.856;2023-02-28T11:11:18;103069.66;;;14.67;55.24
73628;BME280;61923;51.846;5.856;2023-02-28T11:13:46;103044.56;;;14.50;55.24
73628;BME280;61923;51.846;5.856;2023-02-28T11:16:14;103068.09;;;14.64;55.32
73628;BME280;61923;51.846;5.856;2023-02-28T11:18:48;103063.78;;;14.63;55.44
73628;BME280;61923;51.846;5.856;2023-02-28T11:21:34;103063.13;;;14.60;55.49
73628;BME280;61923;51.846;5.856;2023-02-28T11:24:14;103051.56;;;14.49;55.57
73628;BME280;61923;51.846;5.856;2023-02-28T11:26:46;103066.84;;;14.55;55.52
73628;BME280;61923;51.846;5.856;2023-02-28T11:29:30;103049.50;;;14.54;55.52
73628;BME280;61923;51.846;5.856;2023-02-28T11:32:19;103051.28;;;14.54;55.80
73628;BME280;61923;51.846;5.856;2023-02-28T11:34:47;103054.16;;;14.49;55.31
73628;BME280;61923;51.846;5.856;2023-02-28T11:37:24;103058.47;;;14.50;55.46
73628;BME280;61923;51.846;5.856;2023-02-28T11:39:50;103058.38;;;14.52;55.60
73628;BME280;61923;51.846;5.856;2023-02-28T11:47:38;103048.19;;;14.47;55.79
73628;BME280;61923;51.846;5.856;2023-02-28T11:53:00;103049.16;;;14.46;55.62
73628;BME280;61923;51.846;5.856;2023-02-28T11:55:32;103047.47;;;14.45;55.61
73628;BME280;61923;51.846;5.856;2023-02-28T12:06:57;103035.75;;;14.38;55.86
73628;BME280;61923;51.846;5.856;2023-02-28T12:09:44;103025.28;;;14.38;55.77
73628;BME280;61923;51.846;5.856;2023-02-28T12:12:29;103038.53;;;14.35;55.97
73628;BME280;61923;51.846;5.856;2023-02-28T12:20:31;103022.41;;;14.28;55.87
73628;BME280;61923;51.846;5.856;2023-02-28T12:28:33;103002.91;;;14.20;55.74
73628;BME280;61923;51.846;5.856;2023-02-28T12:31:09;103000.94;;;14.23;55.70
73628;BME280;61923;51.846;5.856;2023-02-28T12:33:42;103009.75;;;14.22;55.64
73628;BME280;61923;51.846;5.856;2023-02-28T12:36:12;103009.75;;;14.22;55.63
73628;BME280;61923;51.846;5.856;2023-02-28T12:38:50;102971.69;;;14.04;55.72
73628;BME280;61923;51.846;5.856;2023-02-28T12:41:22;103000.28;;;14.20;55.58
73628;BME280;61923;51.846;5.856;2023-02-28T12:44:05;102996.94;;;14.18;55.64
73628;BME280;61923;51.846;5.856;2023-02-28T12:46:37;102988.19;;;14.19;55.58
73628;BME280;61923;51.846;5.856;2023-02-28T12:49:10;102997.91;;;14.17;55.71
73628;BME280;61923;51.846;5.856;2023-02-28T12:51:38;102987.44;;;14.17;55.93
73628;BME280;61923;51.846;5.856;2023-02-28T12:57:02;102981.47;;;14.14;55.79
73628;BME280;61923;51.846;5.856;2023-02-28T13:10:45;102977.16;;;14.13;55.65
73628;BME280;61923;51.846;5.856;2023-02-28T13:13:23;102969.34;;;14.13;55.72
73628;BME280;61923;51.846;5.856;2023-02-28T13:16:07;102966.84;;;14.12;55.61
73628;BME280;61923;51.846;5.856;2023-02-28T13:18:38;102965.97;;;14.11;55.65
73628;BME280;61923;51.846;5.856;2023-02-28T13:21:07;102952.56;;;14.03;55.65
73628;BME280;61923;51.846;5.856;2023-02-28T13:26:12;102960.75;;;14.11;55.61
73628;BME280;61923;51.846;5.856;2023-02-28T13:28:58;102957.41;;;14.09;55.76
73628;BME280;61923;51.846;5.856;2023-02-28T13:31:23;102951.75;;;14.03;55.71
73628;BME280;61923;51.846;5.856;2023-02-28T13:36:26;102963.66;;;14.07;55.61
73628;BME280;61923;51.846;5.856;2023-02-28T13:38:56;102960.22;;;14.06;55.49
73628;BME280;61923;51.846;5.856;2023-02-28T13:49:31;102944.56;;;14.06;55.69
73628;BME280;61923;51.846;5.856;2023-02-28T13:57:37;102946.31;;;14.06;55.80
73628;BME280;61923;51.846;5.856;2023-02-28T14:03:10;102944.81;;;14.02;55.62
73628;BME280;61923;51.846;5.856;2023-02-28T14:05:38;102938.75;;;14.01;55.53
73628;BME280;61923;51.846;5.856;2023-02-28T14:08:24;102943.06;;;14.02;56.00
73628;BME280;61923;51.846;5.856;2023-02-28T14:11:05;102930.94;;;14.01;55.84
73628;BME280;61923;51.846;5.856;2023-02-28T14:16:05;102934.19;;;14.05;55.93
73628;BME280;61923;51.846;5.856;2023-02-28T14:18:34;102925.63;;;14.03;55.99
73628;BME280;61923;51.846;5.856;2023-02-28T14:23:45;102918.59;;;14.03;56.00
73628;BME280;61923;51.846;5.856;2023-02-28T14:31:34;102917.88;;;14.01;56.18
73628;BME280;61923;51.846;5.856;2023-02-28T14:34:21;102925.69;;;14.01;56.01
73628;BME280;61923;51.846;5.856;2023-02-28T14:36:52;102919.75;;;13.99;56.17
73628;BME280;61923;51.846;5.856;2023-02-28T14:39:23;102919.22;;;13.94;56.20
73628;BME280;61923;51.846;5.856;2023-02-28T14:41:50;102926.66;;;14.00;56.30
73628;BME280;61923;51.846;5.856;2023-02-28T14:44:24;102924.78;;;14.02;55.98
73628;BME280;61923;51.846;5.856;2023-02-28T14:46:59;102912.72;;;14.00;56.24
73628;BME280;61923;51.846;5.856;2023-02-28T14:49:37;102919.75;;;13.99;56.27
73628;BME280;61923;51.846;5.856;2023-02-28T14:52:15;102921.53;;;13.99;56.33
73628;BME280;61923;51.846;5.856;2023-02-28T14:54:43;102900.19;;;13.92;56.27
73628;BME280;61923;51.846;5.856;2023-02-28T14:57:30;102917.97;;;14.00;56.32
73628;BME280;61923;51.846;5.856;2023-02-28T15:02:33;102914.50;;;13.99;56.17
73628;BME280;61923;51.846;5.856;2023-02-28T15:05:10;102920.28;;;14.04;56.38
73628;BME280;61923;51.846;5.856;2023-02-28T15:07:42;102923.84;;;14.03;56.34
73628;BME280;61923;51.846;5.856;2023-02-28T15:12:34;102918.81;;;14.00;56.39
73628;BME280;61923;51.846;5.856;2023-02-28T15:15:00;102918.81;;;14.00;56.38
73628;BME280;61923;51.846;5.856;2023-02-28T15:17:26;102919.56;;;14.02;56.39
73628;BME280;61923;51.846;5.856;2023-02-28T15:19:53;102924.03;;;14.00;56.44
73628;BME280;61923;51.846;5.856;2023-02-28T15:22:26;102920.38;;;14.03;56.46